Lonetree, WY (82936)

6:32 AM MST on February 25, 2017 (GMT -0700)
MD2064 | | Change Station

Elev 7107 ft 41.23 °N, 110.37 °W | Updated 7 minutes ago

Partly Cloudy
Partly Cloudy
5.0 °F
Feels Like -12 °F
N
14.0
Wind Variable Wind from SSW

Today
High -- | Low -- °F
--% Chance of Precip.
Yesterday
High -- | Low -- °F
Precip. -- in
Pressure 29.98 in
Visibility 10.0 miles
Clouds Clear
Windchill -12 °F
Dew Point -3 °F
Humidity 70%
Rainfall 0.00 in
Snow Depth Not available.
7:00 AM 6:07 PM
Waning Crescent, 1% visible
METAR KFBR 251315Z AUTO 24010KT 10SM CLR M14/M18 A2998 RMK AO2 T11411184
Pressure 29.98 in
Visibility 10.0 miles
Clouds Clear
Windchill -12 °F
Dew Point -3 °F
Humidity 70%
Rainfall 0.00 in
Snow Depth Not available.
7:00 AM 6:07 PM
Waning Crescent, 1% visible
METAR KFBR 251315Z AUTO 24010KT 10SM CLR M14/M18 A2998 RMK AO2 T11411184

Get Your Daily Forecast Email!

Thanks for signing up!

Be on the lookout for a verification email in your inbox.

You'll start receiving the daily forecast at 8 AM.

×

10-Day Weather Forecast

Almanac

Astronomy

Feb. 25, 2017 Rise Set
Actual Time
Civil Twilight
Nautical Twilight
Astronomical Twilight
Moon
Length of Visible Light
Length of Day
Tomorrow will be .
, % of the Moon is Illuminated

Today's Extremes

State Highs State Lows

Community

WunderPhotos

Upload Photos

1,962,540 photos uploaded!

WunderBlog® & News

Nearby

Air Quality

  Air Quality AQ Index Pollutant
Not available.

Snow Depth

Station Depth Elevation

Earthquake Activity

City Distance Mag. Time & Date
Minimum magnitude displayed is 2.5.

Coastal Water Temperatures

Place Temperature

Stations

Nearby Weather Stations

Station Location Temp. Windchill Dew Point Humidity Wind Precip. Elev Updated Type
                   

Watches & Warnings

There are currently no watches in effect.